Time;durP1;ratioP1;P1;durP2;ratioP2;P2;SDS_P1;SDS_P2;PMS_P1;PMS_P2;Temp;Humidity;BMP_temperature;BMP_pressure;BME280_temperature;BME280_humidity;BME280_pressure;Samples;Min_cycle;Max_cycle;Signal;HPM_P1;HPM_P2
2023/12/08 00:01:57;;;;;;;71.47;41.63;;;22.60;38.70;;;;;;6143664;28;83187;-62
2023/12/08 00:04:58;;;;;;;69.00;39.80;;;22.60;38.60;;;;;;6144924;28;83622;-63
2023/12/08 00:07:58;;;;;;;69.78;39.03;;;22.60;38.60;;;;;;6144621;28;84069;-62
2023/12/08 00:10:59;;;;;;;74.95;40.50;;;22.60;39.00;;;;;;6140446;28;83110;-62
2023/12/08 00:13:59;;;;;;;74.43;41.13;;;22.60;38.90;;;;;;6144714;28;83419;-61
2023/12/08 00:17:00;;;;;;;78.00;42.92;;;22.60;39.30;;;;;;6144362;28;83801;-62
2023/12/08 00:20:00;;;;;;;77.22;44.13;;;22.60;38.60;;;;;;6146033;28;83403;-64
2023/12/08 00:23:01;;;;;;;78.75;43.55;;;22.60;38.40;;;;;;6140277;28;83850;-66
2023/12/08 00:26:02;;;;;;;77.95;44.38;;;22.60;38.60;;;;;;6143722;28;83495;-63
2023/12/08 00:29:04;;;;;;;78.30;44.30;;;22.60;38.40;;;;;;6147313;28;84376;-68
2023/12/08 00:32:04;;;;;;;84.65;45.03;;;22.60;38.50;;;;;;6137249;28;84356;-67
2023/12/08 00:35:05;;;;;;;80.68;43.35;;;22.60;38.30;;;;;;6146458;28;83411;-69
2023/12/08 00:38:05;;;;;;;79.70;42.88;;;22.60;38.40;;;;;;6147846;28;86299;-70
2023/12/08 00:41:06;;;;;;;72.60;42.28;;;22.50;38.40;;;;;;6141096;28;85404;-67
2023/12/08 00:44:08;;;;;;;83.10;44.58;;;22.50;38.50;;;;;;6147669;28;85743;-66
2023/12/08 00:47:09;;;;;;;85.63;44.65;;;22.50;38.60;;;;;;6147386;28;83034;-68
2023/12/08 00:50:09;;;;;;;83.30;44.15;;;22.50;38.50;;;;;;6151024;28;82898;-69
2023/12/08 00:53:10;;;;;;;80.68;43.88;;;22.50;38.40;;;;;;6151903;28;83427;-69
2023/12/08 00:56:10;;;;;;;73.93;41.33;;;22.50;38.40;;;;;;6151525;28;83594;-65
2023/12/08 00:59:11;;;;;;;82.57;43.30;;;22.50;38.50;;;;;;6149830;28;84599;-67
2023/12/08 01:02:11;;;;;;;81.35;43.97;;;22.60;38.50;;;;;;6150314;28;83576;-63
2023/12/08 01:05:12;;;;;;;77.45;43.83;;;22.60;38.50;;;;;;6149930;28;83029;-63
2023/12/08 01:08:12;;;;;;;78.28;42.38;;;22.50;38.50;;;;;;6151436;28;84062;-67
2023/12/08 01:11:13;;;;;;;84.00;45.47;;;22.50;38.80;;;;;;6146424;28;83608;-66
2023/12/08 01:14:13;;;;;;;73.93;41.38;;;22.50;38.70;;;;;;6151003;28;83078;-66
2023/12/08 01:17:14;;;;;;;78.18;44.10;;;22.50;38.80;;;;;;6143985;28;83147;-66
2023/12/08 01:20:14;;;;;;;69.63;38.95;;;22.50;39.00;;;;;;6149241;28;82914;-67
2023/12/08 01:23:14;;;;;;;77.47;42.45;;;22.50;39.50;;;;;;6149477;28;83168;-67
2023/12/08 01:26:15;;;;;;;79.15;42.15;;;22.50;39.40;;;;;;6146458;28;83949;-66
2023/12/08 01:29:16;;;;;;;75.10;43.00;;;22.50;39.40;;;;;;6149466;28;83836;-66
2023/12/08 01:32:17;;;;;;;72.18;38.40;;;22.50;39.60;;;;;;6141673;28;83707;-71
2023/12/08 01:35:18;;;;;;;61.17;32.67;;;22.50;39.90;;;;;;6149676;28;83862;-68
2023/12/08 01:38:18;;;;;;;68.40;37.53;;;22.50;40.80;;;;;;6142598;28;83361;-67
2023/12/08 01:41:19;;;;;;;60.17;33.17;;;22.50;39.70;;;;;;6140879;28;87863;-68
2023/12/08 01:44:19;;;;;;;71.40;39.75;;;22.50;39.90;;;;;;6148542;28;82997;-66
2023/12/08 01:47:20;;;;;;;72.45;39.45;;;22.50;39.70;;;;;;6149932;28;83980;-66
2023/12/08 01:50:20;;;;;;;76.10;38.80;;;22.50;39.40;;;;;;6149813;28;83190;-67
2023/12/08 01:53:21;;;;;;;72.32;39.33;;;22.50;39.50;;;;;;6147407;28;85180;-67
2023/12/08 01:56:21;;;;;;;72.03;39.38;;;22.50;39.30;;;;;;6139163;28;82945;-64
2023/12/08 01:59:22;;;;;;;69.82;39.58;;;22.50;39.50;;;;;;6146285;28;84509;-64
2023/12/08 02:02:22;;;;;;;76.18;40.35;;;22.50;39.50;;;;;;6142974;28;86062;-64
2023/12/08 02:05:23;;;;;;;66.68;37.22;;;22.50;39.40;;;;;;6146654;28;84172;-64
2023/12/08 02:08:23;;;;;;;72.88;39.60;;;22.50;39.40;;;;;;6137518;28;84551;-63
2023/12/08 02:11:24;;;;;;;71.53;37.53;;;22.50;39.30;;;;;;6145823;28;85023;-64
2023/12/08 02:14:24;;;;;;;64.70;35.15;;;22.50;39.70;;;;;;6137041;28;83715;-63
2023/12/08 02:17:25;;;;;;;61.83;34.40;;;22.50;40.00;;;;;;6148004;28;83070;-64
2023/12/08 02:20:25;;;;;;;69.18;37.58;;;22.40;40.00;;;;;;6149885;28;86948;-65
2023/12/08 02:23:26;;;;;;;73.93;37.80;;;22.40;40.00;;;;;;6139679;28;84130;-65
2023/12/08 02:26:26;;;;;;;78.93;41.47;;;22.40;39.70;;;;;;6147929;28;83404;-63
2023/12/08 02:29:26;;;;;;;74.40;41.58;;;22.50;39.80;;;;;;6133464;28;83425;-62
2023/12/08 02:32:27;;;;;;;73.78;40.38;;;22.50;39.40;;;;;;6144441;28;83117;-65
2023/12/08 02:35:28;;;;;;;72.40;40.35;;;22.50;39.40;;;;;;6150038;28;82897;-63
2023/12/08 02:38:28;;;;;;;74.10;39.60;;;22.50;39.30;;;;;;6140793;28;83078;-64
2023/12/08 02:41:29;;;;;;;70.22;40.00;;;22.50;39.20;;;;;;6144252;28;83240;-66
2023/12/08 02:44:29;;;;;;;74.07;38.75;;;22.50;39.30;;;;;;6148041;28;83231;-65
2023/12/08 02:47:30;;;;;;;69.35;39.20;;;22.50;39.40;;;;;;6148617;28;84095;-65
2023/12/08 02:50:30;;;;;;;72.65;39.75;;;22.50;39.20;;;;;;6147233;28;83094;-71
2023/12/08 02:53:31;;;;;;;73.10;39.88;;;22.50;39.30;;;;;;6144969;28;83046;-71
2023/12/08 02:56:31;;;;;;;76.15;41.03;;;22.50;39.20;;;;;;6141902;28;83130;-71
2023/12/08 02:59:32;;;;;;;74.22;39.90;;;22.50;39.20;;;;;;6149423;28;82881;-70
2023/12/08 03:02:32;;;;;;;72.40;39.58;;;22.50;39.10;;;;;;6149146;28;83922;-71
2023/12/08 03:05:33;;;;;;;80.90;42.25;;;22.40;39.00;;;;;;6149120;28;83129;-71
2023/12/08 03:08:33;;;;;;;76.90;40.78;;;22.50;39.30;;;;;;6148734;28;83419;-71
2023/12/08 03:11:33;;;;;;;67.70;39.42;;;22.40;39.10;;;;;;6143245;28;83341;-67
2023/12/08 03:14:34;;;;;;;78.85;43.08;;;22.50;39.00;;;;;;6149242;28;83752;-67
2023/12/08 03:17:35;;;;;;;80.63;43.88;;;22.40;39.10;;;;;;6148042;28;83330;-66
2023/12/08 03:20:35;;;;;;;82.78;42.38;;;22.40;39.10;;;;;;6147738;28;83136;-67
2023/12/08 03:23:36;;;;;;;72.32;39.58;;;22.40;39.00;;;;;;6148457;28;90007;-64
2023/12/08 03:26:36;;;;;;;71.07;39.90;;;22.40;39.10;;;;;;6149433;28;83212;-66
2023/12/08 03:29:37;;;;;;;75.93;41.30;;;22.40;39.20;;;;;;6144763;28;83087;-63
2023/12/08 03:32:37;;;;;;;74.82;41.35;;;22.40;39.50;;;;;;6143393;28;83120;-63
2023/12/08 03:35:38;;;;;;;64.40;36.05;;;22.40;39.40;;;;;;6148345;28;84321;-63
2023/12/08 03:38:38;;;;;;;72.57;39.95;;;22.40;39.70;;;;;;6140820;28;83019;-63
2023/12/08 03:41:39;;;;;;;69.13;35.80;;;22.40;40.00;;;;;;6144030;28;85150;-64
2023/12/08 03:44:39;;;;;;;69.30;38.60;;;22.40;40.70;;;;;;6147636;28;83563;-62
2023/12/08 03:47:40;;;;;;;72.90;39.30;;;22.50;39.60;;;;;;6147907;28;83212;-64
2023/12/08 03:50:40;;;;;;;72.18;38.90;;;22.40;39.90;;;;;;6146468;28;83004;-61
2023/12/08 03:53:41;;;;;;;72.15;37.42;;;22.40;39.60;;;;;;6141783;28;85472;-62
2023/12/08 03:56:41;;;;;;;75.82;39.45;;;22.40;39.50;;;;;;6142087;28;83769;-63
2023/12/08 03:59:42;;;;;;;73.22;38.17;;;22.40;39.40;;;;;;6148126;28;84220;-63
2023/12/08 04:02:42;;;;;;;74.70;39.60;;;22.40;39.40;;;;;;6144944;28;85205;-66
2023/12/08 04:05:43;;;;;;;68.38;37.78;;;22.40;39.30;;;;;;6139716;28;83706;-64
2023/12/08 04:08:43;;;;;;;67.72;38.80;;;22.40;39.50;;;;;;6146999;28;83194;-63
2023/12/08 04:11:44;;;;;;;72.22;39.45;;;22.40;40.10;;;;;;6144066;28;83691;-62
2023/12/08 04:14:44;;;;;;;79.30;41.30;;;22.40;39.70;;;;;;6147051;28;83657;-63
2023/12/08 04:17:45;;;;;;;74.80;39.58;;;22.40;39.50;;;;;;6145172;28;84278;-62
2023/12/08 04:20:45;;;;;;;73.82;38.83;;;22.50;39.30;;;;;;6145757;28;82969;-64
2023/12/08 04:23:46;;;;;;;72.70;39.80;;;22.40;38.90;;;;;;6151209;28;84628;-65
2023/12/08 04:26:46;;;;;;;75.93;39.28;;;22.50;39.00;;;;;;6148868;28;84319;-65
2023/12/08 04:29:46;;;;;;;73.28;38.80;;;22.50;38.80;;;;;;6146979;28;83120;-63
2023/12/08 04:32:47;;;;;;;74.15;39.65;;;22.50;38.80;;;;;;6148630;28;83046;-63
2023/12/08 04:35:47;;;;;;;72.38;39.80;;;22.60;38.80;;;;;;6137003;28;83818;-62
2023/12/08 04:38:48;;;;;;;71.88;40.10;;;22.60;38.60;;;;;;6151892;28;83324;-62
2023/12/08 04:41:48;;;;;;;65.97;36.47;;;22.60;38.30;;;;;;6147553;28;83107;-64
2023/12/08 04:44:49;;;;;;;68.05;37.47;;;22.70;38.30;;;;;;6149464;28;84307;-64
2023/12/08 04:47:49;;;;;;;67.63;38.15;;;22.70;38.10;;;;;;6150860;28;83303;-61
2023/12/08 04:50:50;;;;;;;72.05;39.05;;;22.70;37.80;;;;;;6144547;28;83283;-62
2023/12/08 04:53:50;;;;;;;68.68;38.55;;;22.80;37.70;;;;;;6142120;28;83394;-62
2023/12/08 04:56:51;;;;;;;67.22;37.05;;;22.80;37.60;;;;;;6139189;28;83610;-61
2023/12/08 04:59:52;;;;;;;63.90;35.63;;;22.80;37.70;;;;;;6143925;28;83027;-61
2023/12/08 05:02:52;;;;;;;62.85;35.80;;;22.80;37.80;;;;;;6150369;28;83419;-60
2023/12/08 05:05:53;;;;;;;63.65;34.25;;;22.90;37.90;;;;;;6151086;28;83310;-60
2023/12/08 05:08:54;;;;;;;63.45;33.40;;;22.90;38.00;;;;;;6145004;28;84647;-60
2023/12/08 05:11:54;;;;;;;57.33;32.78;;;22.90;38.10;;;;;;6150767;28;83277;-60
2023/12/08 05:14:55;;;;;;;60.40;31.30;;;22.90;38.30;;;;;;6150280;28;83500;-61
2023/12/08 05:17:55;;;;;;;54.70;29.55;;;22.90;38.30;;;;;;6148526;28;85212;-60
2023/12/08 05:20:56;;;;;;;55.22;31.10;;;23.00;38.70;;;;;;6147576;28;83155;-66
2023/12/08 05:23:56;;;;;;;54.88;30.05;;;23.00;38.70;;;;;;6149080;28;82824;-61
2023/12/08 05:26:57;;;;;;;51.83;29.05;;;23.00;39.00;;;;;;6150587;28;82862;-62
2023/12/08 05:29:57;;;;;;;47.95;27.48;;;23.00;39.50;;;;;;6138123;28;83910;-62
2023/12/08 05:32:58;;;;;;;48.90;26.65;;;23.00;39.80;;;;;;6144875;28;85537;-63
2023/12/08 05:35:58;;;;;;;45.85;26.30;;;23.10;40.00;;;;;;6144949;28;83475;-69
2023/12/08 05:38:58;;;;;;;44.78;24.63;;;23.10;40.00;;;;;;6139879;28;83099;-69
2023/12/08 05:41:59;;;;;;;48.50;24.67;;;23.10;39.90;;;;;;6147533;28;83153;-73
2023/12/08 05:44:59;;;;;;;40.38;24.52;;;23.10;39.70;;;;;;6149824;28;83173;-71
2023/12/08 05:48:00;;;;;;;39.85;24.15;;;23.10;39.40;;;;;;6148925;28;84702;-71
2023/12/08 05:51:00;;;;;;;39.85;23.75;;;23.10;39.20;;;;;;6151408;28;84146;-68
2023/12/08 05:54:02;;;;;;;45.63;24.35;;;23.10;39.20;;;;;;6143534;28;83825;-67
2023/12/08 05:57:03;;;;;;;42.08;23.77;;;23.00;39.60;;;;;;6148941;28;83619;-62
2023/12/08 06:00:09;;;;;;;41.95;21.23;;;23.00;39.40;;;;;;6150219;28;83640;-65
2023/12/08 06:03:12;;;;;;;40.45;23.30;;;23.00;39.40;;;;;;6134540;28;83219;-65
2023/12/08 06:06:13;;;;;;;40.38;23.42;;;23.00;39.10;;;;;;6136185;28;84540;-66
2023/12/08 06:09:14;;;;;;;38.38;22.85;;;23.00;39.30;;;;;;6143579;28;83376;-65
2023/12/08 06:12:14;;;;;;;36.80;21.92;;;23.00;38.90;;;;;;6134765;28;84479;-65
2023/12/08 06:15:15;;;;;;;38.50;22.65;;;23.00;38.80;;;;;;6139717;28;83651;-64
2023/12/08 06:18:15;;;;;;;39.15;22.88;;;22.90;38.70;;;;;;6145759;28;83584;-64
2023/12/08 06:21:17;;;;;;;38.45;22.05;;;22.90;38.60;;;;;;6148736;28;84161;-66
2023/12/08 06:24:17;;;;;;;36.80;21.75;;;22.80;38.50;;;;;;6147188;28;83136;-64
2023/12/08 06:27:18;;;;;;;35.20;21.70;;;22.90;39.00;;;;;;6150310;28;83745;-65
2023/12/08 06:30:18;;;;;;;40.15;22.58;;;22.80;38.40;;;;;;6144060;28;82614;-63
2023/12/08 06:33:19;;;;;;;37.42;23.25;;;22.80;38.30;;;;;;6125094;28;83145;-63
2023/12/08 06:36:19;;;;;;;36.70;21.73;;;22.70;38.50;;;;;;6127071;28;85002;-69
2023/12/08 06:39:20;;;;;;;38.72;22.23;;;22.70;38.20;;;;;;6145129;28;83098;-69
2023/12/08 06:42:21;;;;;;;33.92;21.38;;;22.60;38.00;;;;;;6137267;28;90372;-67
2023/12/08 06:45:22;;;;;;;36.35;20.35;;;22.60;38.00;;;;;;6165384;28;83954;-67
2023/12/08 06:48:24;;;;;;;34.42;21.00;;;22.60;38.40;;;;;;6170256;28;83825;-66
2023/12/08 06:51:24;;;;;;;38.95;22.23;;;22.50;38.10;;;;;;6171131;28;83406;-61
2023/12/08 06:54:25;;;;;;;33.20;20.98;;;22.50;38.30;;;;;;6144379;28;84060;-61
2023/12/08 06:57:25;;;;;;;39.55;24.00;;;22.50;38.00;;;;;;6146409;28;83080;-60
2023/12/08 07:00:26;;;;;;;36.08;21.83;;;22.50;37.70;;;;;;6141403;28;85201;-64
2023/12/08 07:03:27;;;;;;;35.10;21.10;;;22.50;37.60;;;;;;6144476;28;83585;-59
2023/12/08 07:06:27;;;;;;;35.97;22.10;;;22.50;38.10;;;;;;6142772;28;83215;-61
2023/12/08 07:09:28;;;;;;;32.83;20.77;;;22.40;37.50;;;;;;6144104;28;83893;-70
2023/12/08 07:12:28;;;;;;;34.83;21.25;;;22.40;37.90;;;;;;6149395;28;83396;-70
2023/12/08 07:15:29;;;;;;;34.90;21.30;;;22.40;37.50;;;;;;6150488;28;83169;-71
2023/12/08 07:18:29;;;;;;;35.35;22.05;;;22.40;37.20;;;;;;6150084;28;82940;-72
2023/12/08 07:21:30;;;;;;;36.70;21.67;;;22.40;37.10;;;;;;6147097;28;84340;-71
2023/12/08 07:24:30;;;;;;;32.17;20.35;;;22.30;37.00;;;;;;6138115;28;84195;-72
2023/12/08 07:27:32;;;;;;;33.30;20.80;;;22.40;36.90;;;;;;6166657;28;84261;-70
2023/12/08 07:30:32;;;;;;;39.10;22.13;;;22.30;36.80;;;;;;6171471;28;83048;-71
2023/12/08 07:33:33;;;;;;;36.53;20.90;;;22.30;36.80;;;;;;6171456;28;82782;-69
2023/12/08 07:36:33;;;;;;;32.72;20.77;;;22.30;36.70;;;;;;6172555;28;83764;-69
2023/12/08 07:39:34;;;;;;;31.17;20.60;;;22.30;36.70;;;;;;6172395;28;82902;-68
2023/12/08 07:42:34;;;;;;;33.22;19.65;;;22.30;36.70;;;;;;6173228;28;83457;-70
2023/12/08 07:45:35;;;;;;;36.78;22.60;;;22.30;36.80;;;;;;6171985;28;84188;-62
2023/12/08 07:48:35;;;;;;;34.38;21.40;;;22.30;36.70;;;;;;6171648;28;84135;-62
2023/12/08 07:51:36;;;;;;;35.42;21.40;;;22.30;36.80;;;;;;6168638;28;83230;-62
2023/12/08 07:54:36;;;;;;;32.67;20.60;;;22.30;36.90;;;;;;6160971;28;83019;-62
2023/12/08 07:57:37;;;;;;;30.13;18.92;;;22.30;37.30;;;;;;6176516;28;83340;-62
2023/12/08 08:00:38;;;;;;;32.28;20.38;;;22.30;38.20;;;;;;6175764;28;84656;-62
2023/12/08 08:03:38;;;;;;;32.20;19.45;;;22.30;37.90;;;;;;6175035;28;83396;-61
2023/12/08 08:06:39;;;;;;;35.05;20.17;;;22.20;38.50;;;;;;6175729;28;83277;-61
2023/12/08 08:09:39;;;;;;;31.90;19.23;;;22.30;38.40;;;;;;6171749;28;83845;-61
2023/12/08 08:12:40;;;;;;;31.80;19.85;;;22.30;38.60;;;;;;6175758;28;84164;-61
2023/12/08 08:15:40;;;;;;;33.35;21.38;;;22.30;38.50;;;;;;6175299;28;84354;-62
2023/12/08 08:18:41;;;;;;;39.03;23.60;;;22.30;37.80;;;;;;6176796;28;82868;-62
2023/12/08 08:21:42;;;;;;;36.53;22.30;;;22.30;37.70;;;;;;6175889;28;83280;-62
2023/12/08 08:24:42;;;;;;;38.30;23.80;;;22.30;37.60;;;;;;6175764;28;83507;-63
2023/12/08 08:27:43;;;;;;;36.60;21.80;;;22.30;37.90;;;;;;6174687;28;84318;-62
2023/12/08 08:30:46;;;;;;;34.92;21.40;;;22.20;38.00;;;;;;6168496;28;83816;-62
2023/12/08 08:33:47;;;;;;;32.75;20.10;;;22.30;38.40;;;;;;6175781;28;88350;-62
2023/12/08 08:36:47;;;;;;;36.72;22.15;;;22.30;38.20;;;;;;6169275;28;83158;-63
2023/12/08 08:39:48;;;;;;;31.30;19.85;;;22.30;38.10;;;;;;6174103;28;84556;-69
2023/12/08 08:42:48;;;;;;;35.28;21.80;;;22.30;38.30;;;;;;6175774;28;83558;-69
2023/12/08 08:45:49;;;;;;;32.22;18.83;;;22.30;38.30;;;;;;6175682;28;83516;-67
2023/12/08 08:48:49;;;;;;;32.22;19.33;;;22.30;38.50;;;;;;6172176;28;83201;-66
2023/12/08 08:51:50;;;;;;;32.85;19.20;;;22.30;38.50;;;;;;6175663;28;83398;-69
2023/12/08 08:54:50;;;;;;;33.58;20.83;;;22.30;38.60;;;;;;6174575;28;83582;-68
2023/12/08 08:57:51;;;;;;;34.50;20.90;;;22.30;38.50;;;;;;6176346;28;85983;-69
2023/12/08 09:00:51;;;;;;;38.40;20.42;;;22.30;38.40;;;;;;6176067;28;83624;-68
2023/12/08 09:03:52;;;;;;;35.53;21.27;;;22.30;38.30;;;;;;6175477;28;84669;-67
2023/12/08 09:06:52;;;;;;;32.00;19.17;;;22.30;38.30;;;;;;6169962;28;83042;-67
2023/12/08 09:09:53;;;;;;;33.78;20.58;;;22.30;38.50;;;;;;6173745;28;83477;-66
2023/12/08 09:12:53;;;;;;;34.80;19.83;;;22.30;38.50;;;;;;6172614;28;84021;-68
2023/12/08 09:15:54;;;;;;;33.88;20.55;;;22.30;38.40;;;;;;6175467;28;83205;-66
2023/12/08 09:18:54;;;;;;;34.13;20.50;;;22.30;38.80;;;;;;6174577;28;82980;-70
2023/12/08 09:21:55;;;;;;;37.88;21.85;;;22.30;38.60;;;;;;6174723;28;83365;-70
2023/12/08 09:24:55;;;;;;;37.58;21.77;;;22.30;38.60;;;;;;6176562;28;83385;-70
2023/12/08 09:27:56;;;;;;;38.08;21.77;;;22.30;38.50;;;;;;6175050;28;83524;-69
2023/12/08 09:30:56;;;;;;;33.60;19.73;;;22.30;38.50;;;;;;6172365;28;82911;-69
2023/12/08 09:33:58;;;;;;;37.53;21.85;;;22.30;38.50;;;;;;6175163;28;82991;-70
2023/12/08 09:36:59;;;;;;;42.42;23.13;;;22.30;38.40;;;;;;6163858;28;83793;-72
2023/12/08 09:40:00;;;;;;;38.67;23.13;;;22.30;38.30;;;;;;6172921;28;83015;-71
2023/12/08 09:43:00;;;;;;;34.70;19.60;;;22.40;38.20;;;;;;6172488;28;83125;-71
2023/12/08 09:46:02;;;;;;;37.53;22.25;;;22.30;38.20;;;;;;6172427;28;83650;-73
2023/12/08 09:49:03;;;;;;;35.85;21.10;;;22.30;38.20;;;;;;6174298;28;83448;-70
2023/12/08 09:52:03;;;;;;;39.92;21.83;;;22.30;38.20;;;;;;6162019;28;84310;-69
2023/12/08 09:55:04;;;;;;;37.08;20.30;;;22.40;38.30;;;;;;6174549;28;83466;-69
2023/12/08 09:58:04;;;;;;;31.33;18.98;;;22.40;38.40;;;;;;6160923;28;83409;-71
2023/12/08 10:01:05;;;;;;;34.60;19.48;;;22.40;38.40;;;;;;6169157;28;84737;-69
2023/12/08 10:04:05;;;;;;;29.83;18.23;;;22.40;38.60;;;;;;6148972;28;84089;-70
2023/12/08 10:07:06;;;;;;;35.33;19.45;;;22.40;38.40;;;;;;6167136;28;84082;-70
2023/12/08 10:10:08;;;;;;;27.63;17.45;;;22.40;38.30;;;;;;6172596;28;83370;-70
2023/12/08 10:13:08;;;;;;;26.88;16.77;;;22.40;38.40;;;;;;6173233;28;83063;-69
2023/12/08 10:16:09;;;;;;;26.67;16.02;;;22.40;38.40;;;;;;6172984;28;83357;-69
2023/12/08 10:19:09;;;;;;;25.70;16.38;;;22.40;38.50;;;;;;6173956;28;84072;-68
2023/12/08 10:22:10;;;;;;;24.05;15.00;;;22.30;38.20;;;;;;6171777;28;84516;-69
2023/12/08 10:25:10;;;;;;;27.25;16.00;;;22.40;38.30;;;;;;6171931;28;83160;-68
2023/12/08 10:28:11;;;;;;;24.10;15.13;;;22.40;38.30;;;;;;6172147;28;84841;-71
2023/12/08 10:31:11;;;;;;;25.10;15.57;;;22.40;38.40;;;;;;6169856;28;87475;-70
2023/12/08 10:34:11;;;;;;;24.85;16.08;;;22.40;38.20;;;;;;6169416;28;83046;-69
2023/12/08 10:37:12;;;;;;;24.90;16.00;;;22.40;38.20;;;;;;6173873;28;83974;-68
2023/12/08 10:40:12;;;;;;;20.95;13.05;;;22.30;38.20;;;;;;6171499;28;87505;-71
2023/12/08 10:43:13;;;;;;;22.52;15.07;;;22.40;39.20;;;;;;6174150;28;82884;-72
2023/12/08 10:46:14;;;;;;;25.27;15.43;;;22.30;38.20;;;;;;6174175;28;83075;-70
2023/12/08 10:49:14;;;;;;;26.25;15.38;;;22.40;37.90;;;;;;6173538;28;83086;-65
2023/12/08 10:52:15;;;;;;;25.20;15.75;;;22.30;37.80;;;;;;6172672;28;83364;-67
2023/12/08 10:55:15;;;;;;;22.02;14.93;;;22.30;37.80;;;;;;6173725;28;83532;-67
2023/12/08 10:58:16;;;;;;;24.73;14.30;;;22.30;37.90;;;;;;6173735;28;90277;-68
2023/12/08 11:01:17;;;;;;;28.30;16.58;;;22.30;37.70;;;;;;6172973;28;83232;-67
2023/12/08 11:04:18;;;;;;;22.98;15.15;;;22.30;37.70;;;;;;6172644;28;85248;-68
2023/12/08 11:07:19;;;;;;;25.67;16.08;;;22.30;37.90;;;;;;6170763;28;83848;-67
2023/12/08 11:10:20;;;;;;;27.55;16.92;;;22.30;37.70;;;;;;6173290;28;84595;-67
2023/12/08 11:13:20;;;;;;;24.48;16.10;;;22.30;37.80;;;;;;6172347;28;84038;-67
2023/12/08 11:16:21;;;;;;;25.85;16.15;;;22.30;37.70;;;;;;6173369;28;83404;-67
2023/12/08 11:19:21;;;;;;;27.38;16.40;;;22.30;37.70;;;;;;6173108;28;85591;-67
2023/12/08 11:22:21;;;;;;;24.05;15.68;;;22.30;37.60;;;;;;6172115;28;83360;-67
2023/12/08 11:25:22;;;;;;;28.35;16.67;;;22.30;37.50;;;;;;6172204;28;83014;-62
2023/12/08 11:28:22;;;;;;;27.20;16.63;;;22.30;37.50;;;;;;6172238;28;83297;-62
2023/12/08 11:31:23;;;;;;;25.48;16.27;;;22.30;37.40;;;;;;6171830;28;84166;-61
2023/12/08 11:34:24;;;;;;;29.65;17.05;;;22.30;37.50;;;;;;6171993;28;83606;-63
2023/12/08 11:37:25;;;;;;;27.02;17.58;;;22.30;37.40;;;;;;6166366;28;84352;-63
2023/12/08 11:40:25;;;;;;;25.65;16.77;;;22.30;37.40;;;;;;6171861;28;83182;-67
2023/12/08 11:43:26;;;;;;;28.58;17.35;;;22.30;37.50;;;;;;6171295;28;83868;-63
2023/12/08 11:46:27;;;;;;;29.58;17.75;;;22.30;37.60;;;;;;6170844;28;83236;-63
2023/12/08 11:49:27;;;;;;;25.55;16.27;;;22.30;37.80;;;;;;6173574;28;83187;-61
2023/12/08 11:52:28;;;;;;;26.08;16.85;;;22.30;38.10;;;;;;6172074;28;83391;-62
2023/12/08 11:55:28;;;;;;;25.00;16.40;;;22.20;37.70;;;;;;6171476;28;82882;-62
2023/12/08 11:58:29;;;;;;;27.10;17.88;;;22.30;37.70;;;;;;6172186;28;84600;-63
2023/12/08 12:01:29;;;;;;;24.52;15.50;;;22.30;37.50;;;;;;6171996;28;84141;-63
2023/12/08 12:04:30;;;;;;;25.40;16.60;;;22.30;37.60;;;;;;6171720;28;84459;-72
2023/12/08 12:07:30;;;;;;;26.05;15.75;;;22.30;37.40;;;;;;6172675;28;82885;-71
2023/12/08 12:10:32;;;;;;;25.38;16.13;;;22.30;37.50;;;;;;6172962;28;84718;-73
2023/12/08 12:13:32;;;;;;;23.10;15.23;;;22.20;37.40;;;;;;6172351;28;83703;-72
2023/12/08 12:16:33;;;;;;;26.25;16.60;;;22.30;37.50;;;;;;6172423;28;83569;-75
2023/12/08 12:19:33;;;;;;;23.10;15.93;;;22.20;37.40;;;;;;6171535;28;83905;-73
2023/12/08 12:22:34;;;;;;;22.02;15.32;;;22.20;37.40;;;;;;6168672;28;84716;-72
2023/12/08 12:25:34;;;;;;;24.60;15.77;;;22.20;37.40;;;;;;6170893;28;83114;-73
2023/12/08 12:28:35;;;;;;;24.15;15.68;;;22.20;37.60;;;;;;6170221;28;84371;-72
2023/12/08 12:31:35;;;;;;;26.15;16.83;;;22.20;37.80;;;;;;6162607;28;83219;-70
2023/12/08 12:34:36;;;;;;;25.73;16.25;;;22.20;37.70;;;;;;6167600;28;83003;-71
2023/12/08 12:37:37;;;;;;;22.52;15.02;;;22.20;37.70;;;;;;6163378;28;83212;-70
2023/12/08 12:40:37;;;;;;;23.70;15.93;;;22.20;37.60;;;;;;6170708;28;83390;-70
2023/12/08 12:43:38;;;;;;;24.92;15.68;;;22.20;37.50;;;;;;6174671;28;83291;-70
2023/12/08 12:46:38;;;;;;;24.45;15.50;;;22.30;37.50;;;;;;6173095;28;83922;-71
2023/12/08 12:49:39;;;;;;;21.80;14.13;;;22.20;37.40;;;;;;6165377;28;84245;-71
2023/12/08 12:52:40;;;;;;;20.08;14.13;;;22.30;37.40;;;;;;6176757;28;83957;-73
2023/12/08 12:55:40;;;;;;;18.83;13.50;;;22.30;37.80;;;;;;6175144;28;83224;-71
2023/12/08 12:58:41;;;;;;;19.75;13.80;;;22.30;37.80;;;;;;6174929;28;84790;-64
2023/12/08 13:01:41;;;;;;;21.17;14.60;;;22.30;38.00;;;;;;6174506;28;83837;-63
2023/12/08 13:04:42;;;;;;;22.83;15.05;;;22.30;38.00;;;;;;6175596;28;83358;-63
2023/12/08 13:07:42;;;;;;;21.90;14.15;;;22.20;38.00;;;;;;6171868;28;83575;-63
2023/12/08 13:10:43;;;;;;;24.42;13.90;;;22.20;37.80;;;;;;6174846;28;83131;-63
2023/12/08 13:13:44;;;;;;;21.58;14.77;;;22.30;38.00;;;;;;6175566;28;83809;-63
2023/12/08 13:16:45;;;;;;;18.20;13.13;;;22.30;38.00;;;;;;6175281;28;83529;-65
2023/12/08 13:19:45;;;;;;;20.10;13.10;;;22.20;37.80;;;;;;6174712;28;84572;-63
2023/12/08 13:22:46;;;;;;;17.65;12.15;;;22.20;37.80;;;;;;6170835;28;90186;-63
2023/12/08 13:25:46;;;;;;;18.88;12.38;;;22.20;38.50;;;;;;6175224;28;83177;-64
2023/12/08 13:28:47;;;;;;;18.65;12.75;;;22.30;38.00;;;;;;6156586;28;83030;-65
2023/12/08 13:31:47;;;;;;;18.88;12.52;;;22.20;38.10;;;;;;6167693;28;83341;-65
2023/12/08 13:34:48;;;;;;;15.15;10.70;;;22.20;38.10;;;;;;6175087;28;86316;-70
2023/12/08 13:37:49;;;;;;;18.95;12.18;;;22.20;38.30;;;;;;6170879;28;83526;-72
2023/12/08 13:40:49;;;;;;;20.63;13.25;;;22.20;38.40;;;;;;6170194;28;84429;-70
2023/12/08 13:43:50;;;;;;;17.83;11.70;;;22.20;38.20;;;;;;6174672;28;83953;-66
2023/12/08 13:46:53;;;;;;;14.73;10.88;;;22.20;37.90;;;;;;6171953;28;83415;-68
2023/12/08 13:49:54;;;;;;;15.27;10.82;;;22.20;38.00;;;;;;6165160;28;83880;-68
2023/12/08 13:52:54;;;;;;;13.77;10.27;;;22.20;38.00;;;;;;6174787;28;83656;-70
2023/12/08 13:55:55;;;;;;;17.65;10.93;;;22.20;38.10;;;;;;6169429;28;83915;-70
2023/12/08 13:58:55;;;;;;;14.95;10.48;;;22.20;38.40;;;;;;6143127;28;84340;-71
2023/12/08 14:01:56;;;;;;;15.68;11.18;;;22.20;38.10;;;;;;6153333;28;83517;-72
2023/12/08 14:04:56;;;;;;;16.77;10.80;;;22.20;38.00;;;;;;6168368;28;83213;-68
2023/12/08 14:07:57;;;;;;;15.85;11.20;;;22.20;37.90;;;;;;6171096;28;83336;-62
2023/12/08 14:10:57;;;;;;;19.77;12.25;;;22.20;37.90;;;;;;6172977;28;83094;-63
2023/12/08 14:13:58;;;;;;;18.95;11.93;;;22.20;38.30;;;;;;6153478;28;85068;-63
2023/12/08 14:16:58;;;;;;;19.17;11.98;;;22.20;39.00;;;;;;6168132;28;84795;-63
2023/12/08 14:19:59;;;;;;;24.05;12.73;;;22.20;39.10;;;;;;6172190;28;84175;-60
2023/12/08 14:23:00;;;;;;;20.30;12.20;;;22.20;38.80;;;;;;6173617;28;84467;-61
2023/12/08 14:26:01;;;;;;;23.60;13.43;;;22.20;38.60;;;;;;6167225;28;84108;-59
2023/12/08 14:29:01;;;;;;;20.05;13.32;;;22.20;39.00;;;;;;6167802;28;83853;-66
2023/12/08 14:32:02;;;;;;;17.95;12.23;;;22.30;39.30;;;;;;6167702;28;83070;-65
2023/12/08 14:35:02;;;;;;;18.73;12.70;;;22.30;39.70;;;;;;6165049;28;83092;-68
2023/12/08 14:38:04;;;;;;;18.00;11.73;;;22.30;39.70;;;;;;6142430;28;84132;-69
2023/12/08 14:41:04;;;;;;;18.17;11.57;;;22.30;39.80;;;;;;6151550;28;83729;-67
2023/12/08 14:44:05;;;;;;;16.75;10.88;;;22.30;39.80;;;;;;6169195;28;85708;-73
2023/12/08 14:47:06;;;;;;;17.95;10.60;;;22.30;40.00;;;;;;6161509;28;83299;-68
2023/12/08 14:50:09;;;;;;;18.00;10.93;;;22.30;39.90;;;;;;6170402;28;88751;-64
2023/12/08 14:53:10;;;;;;;18.02;10.90;;;22.30;40.10;;;;;;6162092;28;84021;-64
2023/12/08 14:56:10;;;;;;;20.13;12.57;;;22.40;39.80;;;;;;6170427;28;82990;-64
2023/12/08 14:59:11;;;;;;;15.88;11.10;;;22.30;39.80;;;;;;6165616;28;83806;-65
2023/12/08 15:02:11;;;;;;;17.80;10.73;;;22.30;39.80;;;;;;6172282;28;84362;-63
2023/12/08 15:05:12;;;;;;;18.27;11.23;;;22.30;39.60;;;;;;6172996;28;84623;-68
2023/12/08 15:08:12;;;;;;;19.38;11.63;;;22.40;39.80;;;;;;6168039;28;85690;-66
2023/12/08 15:11:13;;;;;;;20.90;11.73;;;22.40;39.60;;;;;;6169402;28;82953;-66
2023/12/08 15:14:13;;;;;;;17.08;11.32;;;22.30;39.70;;;;;;6161387;28;83238;-62
2023/12/08 15:17:14;;;;;;;18.35;10.00;;;22.40;39.50;;;;;;6172454;28;83050;-59